Time;durP1;ratioP1;P1;durP2;ratioP2;P2;SDS_P1;SDS_P2;PMS_P1;PMS_P2;Temp;Humidity;BMP_temperature;BMP_pressure;BME280_temperature;BME280_humidity;BME280_pressure;Samples;Min_cycle;Max_cycle;Signal;HPM_P1;HPM_P2
2022/03/21 00:01:40;;;;;;;60.13;29.67;;;3.60;99.90;;;;;;5078813;28;20074;-68
2022/03/21 00:04:06;;;;;;;57.38;28.77;;;3.50;99.90;;;;;;5058654;28;20124;-68
2022/03/21 00:06:31;;;;;;;56.47;29.30;;;3.50;99.90;;;;;;5078411;28;20123;-68
2022/03/21 00:08:57;;;;;;;54.87;29.80;;;3.50;99.90;;;;;;5073253;28;20078;-68
2022/03/21 00:11:24;;;;;;;54.88;29.30;;;3.50;99.90;;;;;;5060264;28;20123;-68
2022/03/21 00:13:54;;;;;;;57.22;29.23;;;3.40;99.90;;;;;;5057620;28;20918;-68
2022/03/21 00:16:20;;;;;;;54.83;30.17;;;3.40;99.90;;;;;;5072883;28;20061;-68
2022/03/21 00:18:46;;;;;;;61.03;30.40;;;3.40;99.90;;;;;;5078625;28;20036;-68
2022/03/21 00:21:11;;;;;;;58.67;30.70;;;3.30;99.90;;;;;;5075621;28;20040;-68
2022/03/21 00:23:37;;;;;;;64.53;30.67;;;3.30;99.90;;;;;;5060186;28;20195;-68
2022/03/21 00:26:04;;;;;;;56.13;29.90;;;3.40;99.90;;;;;;5076413;28;20035;-68
2022/03/21 00:28:30;;;;;;;53.75;28.13;;;3.30;99.90;;;;;;5068713;28;20051;-68
2022/03/21 00:30:56;;;;;;;54.63;29.60;;;3.30;99.90;;;;;;5073385;28;20032;-68
2022/03/21 00:33:21;;;;;;;62.17;31.30;;;3.30;99.90;;;;;;5074260;28;21709;-68
2022/03/21 00:35:50;;;;;;;59.63;30.50;;;3.30;99.90;;;;;;5046553;28;20052;-66
2022/03/21 00:38:17;;;;;;;64.07;31.10;;;3.30;99.90;;;;;;5080232;28;20139;-66
2022/03/21 00:40:46;;;;;;;62.72;31.55;;;3.30;99.90;;;;;;5066241;28;20040;-66
2022/03/21 00:43:21;;;;;;;64.35;31.85;;;3.30;99.90;;;;;;5075880;28;20449;-68
2022/03/21 00:45:47;;;;;;;63.25;31.55;;;3.30;99.90;;;;;;5083801;28;20392;-68
2022/03/21 00:48:13;;;;;;;58.65;31.35;;;3.30;99.90;;;;;;5081778;28;20047;-66
2022/03/21 00:50:39;;;;;;;60.88;30.42;;;3.30;99.90;;;;;;5080831;28;20450;-68
2022/03/21 00:53:05;;;;;;;58.97;29.73;;;3.30;99.90;;;;;;5078489;28;20048;-68
2022/03/21 00:55:30;;;;;;;60.63;31.63;;;3.20;99.90;;;;;;5080382;28;20047;-68
2022/03/21 00:57:58;;;;;;;66.13;31.93;;;3.20;99.90;;;;;;5076469;28;20414;-68
2022/03/21 01:00:27;;;;;;;62.38;30.33;;;3.20;99.90;;;;;;5073753;28;20959;-68
2022/03/21 01:02:54;;;;;;;66.00;32.50;;;3.20;99.90;;;;;;5068256;28;20040;-68
2022/03/21 01:05:20;;;;;;;68.47;32.22;;;3.20;99.90;;;;;;5087455;28;20071;-68
2022/03/21 01:07:46;;;;;;;66.17;30.57;;;3.20;99.90;;;;;;5066031;28;20420;-68
2022/03/21 01:10:14;;;;;;;59.67;31.00;;;3.20;99.90;;;;;;5059686;28;20450;-68
2022/03/21 01:12:41;;;;;;;63.03;31.48;;;3.20;99.90;;;;;;5072658;28;20040;-68
2022/03/21 01:15:08;;;;;;;66.50;33.25;;;3.20;99.90;;;;;;5077347;28;20044;-66
2022/03/21 01:17:33;;;;;;;;;;;3.20;99.90;;;;;;5045559;28;20374;-66
2022/03/21 01:19:59;;;;;;;58.53;29.73;;;3.20;99.90;;;;;;5050700;28;20301;-66
2022/03/21 01:22:27;;;;;;;64.37;29.17;;;3.10;99.90;;;;;;5085396;28;20443;-67
2022/03/21 01:24:53;;;;;;;63.22;30.45;;;3.10;99.90;;;;;;5082642;28;20032;-66
2022/03/21 01:27:19;;;;;;;63.73;31.50;;;3.10;99.90;;;;;;5077249;28;20411;-67
2022/03/21 01:29:45;;;;;;;59.60;31.27;;;3.10;99.90;;;;;;5069994;28;20476;-66
2022/03/21 01:32:13;;;;;;;61.97;29.73;;;3.10;99.90;;;;;;5076492;28;20130;-67
2022/03/21 01:34:39;;;;;;;58.63;30.08;;;3.10;99.90;;;;;;5053235;28;20045;-67
2022/03/21 01:37:04;;;;;;;60.73;30.73;;;3.00;99.90;;;;;;5077028;28;20367;-66
2022/03/21 01:39:30;;;;;;;62.87;31.87;;;3.00;99.90;;;;;;5048964;28;20040;-66
2022/03/21 01:41:56;;;;;;;71.03;32.30;;;3.00;99.90;;;;;;5068692;28;20824;-66
2022/03/21 01:44:22;;;;;;;60.07;29.80;;;3.00;99.90;;;;;;5075041;28;20544;-67
2022/03/21 01:46:48;;;;;;;63.90;32.77;;;3.00;99.90;;;;;;5060783;28;20269;-67
2022/03/21 01:49:14;;;;;;;57.00;28.93;;;3.00;99.90;;;;;;5076396;28;20035;-66
2022/03/21 01:51:44;;;;;;;53.70;27.15;;;3.00;99.90;;;;;;5073022;28;20294;-67
2022/03/21 01:56:55;;;;;;;57.95;29.90;;;3.00;99.90;;;;;;5079086;28;20044;-67
2022/03/21 01:59:21;;;;;;;59.58;30.10;;;2.90;99.90;;;;;;5072960;28;20051;-66
2022/03/21 02:01:48;;;;;;;58.58;30.65;;;2.90;99.90;;;;;;5079549;28;20506;-67
2022/03/21 02:04:14;;;;;;;63.25;30.52;;;2.90;99.90;;;;;;5053011;28;20513;-67
2022/03/21 02:06:43;;;;;;;58.92;31.75;;;2.90;99.90;;;;;;5067537;28;20047;-67
2022/03/21 02:09:09;;;;;;;63.70;32.90;;;2.80;99.90;;;;;;5082601;28;20405;-67
2022/03/21 02:11:34;;;;;;;64.22;32.05;;;2.90;99.90;;;;;;5078384;28;20772;-67
2022/03/21 02:14:02;;;;;;;66.10;32.00;;;2.80;99.90;;;;;;5083455;28;20206;-67
2022/03/21 02:16:30;;;;;;;71.35;32.72;;;2.80;99.90;;;;;;5081663;28;20038;-67
2022/03/21 02:18:59;;;;;;;63.80;30.90;;;2.80;99.90;;;;;;5046117;28;20066;-67
2022/03/21 02:21:36;;;;;;;57.13;29.05;;;2.80;99.90;;;;;;5077410;28;20047;-67
2022/03/21 02:24:21;;;;;;;65.25;32.45;;;2.80;99.90;;;;;;5075554;28;20040;-67
2022/03/21 02:26:47;;;;;;;62.95;31.88;;;2.80;99.90;;;;;;5055133;28;20036;-67
2022/03/21 02:29:14;;;;;;;56.53;29.80;;;2.80;99.90;;;;;;5082068;28;20040;-67
2022/03/21 02:31:41;;;;;;;62.40;31.88;;;2.80;99.90;;;;;;5056528;28;20446;-67
2022/03/21 02:34:08;;;;;;;60.72;30.02;;;2.70;99.90;;;;;;5058278;28;20048;-67
2022/03/21 02:36:34;;;;;;;62.53;29.77;;;2.70;99.90;;;;;;5095492;22;20311;-67
2022/03/21 02:39:00;;;;;;;58.75;30.85;;;2.70;99.90;;;;;;5073095;28;20067;-66
2022/03/21 02:41:27;;;;;;;62.95;30.92;;;2.70;99.90;;;;;;5078978;28;20058;-66
2022/03/21 02:43:59;;;;;;;58.53;30.95;;;2.70;99.90;;;;;;5078345;28;20054;-69
2022/03/21 02:46:26;;;;;;;58.42;29.08;;;2.70;99.90;;;;;;5081511;28;20036;-69
2022/03/21 02:48:55;;;;;;;63.80;31.58;;;2.70;99.90;;;;;;5085151;28;20164;-69
2022/03/21 02:51:22;;;;;;;61.65;31.73;;;2.70;99.90;;;;;;5078938;28;20070;-68
2022/03/21 02:53:51;;;;;;;60.30;30.38;;;2.70;99.90;;;;;;5072285;28;20036;-68
2022/03/21 02:56:20;;;;;;;62.47;30.70;;;2.60;99.90;;;;;;5066570;28;20151;-68
2022/03/21 02:58:47;;;;;;;60.70;30.48;;;2.70;99.90;;;;;;5082316;28;20081;-69
2022/03/21 03:01:17;;;;;;;59.38;31.75;;;2.60;99.90;;;;;;5073997;28;20047;-68
2022/03/21 03:03:44;;;;;;;62.33;31.73;;;2.60;99.90;;;;;;5079331;28;20043;-68
2022/03/21 03:06:10;;;;;;;61.30;29.95;;;2.60;99.90;;;;;;5077295;28;20475;-68
2022/03/21 03:08:37;;;;;;;60.72;30.92;;;2.60;99.90;;;;;;5086766;28;20126;-68
2022/03/21 03:11:03;;;;;;;63.70;31.60;;;2.60;99.90;;;;;;5078708;28;20040;-68
2022/03/21 03:13:29;;;;;;;63.50;31.17;;;2.60;99.90;;;;;;5076363;28;20039;-68
2022/03/21 03:15:55;;;;;;;58.60;29.63;;;2.50;99.90;;;;;;5075406;28;20123;-69
2022/03/21 03:18:20;;;;;;;58.27;29.93;;;2.60;99.90;;;;;;5082787;28;20406;-68
2022/03/21 03:20:52;;;;;;;69.07;32.93;;;2.50;99.90;;;;;;5083941;28;20114;-68
2022/03/21 03:23:19;;;;;;;61.85;31.38;;;2.50;99.90;;;;;;5084983;28;20579;-69
2022/03/21 03:25:56;;;;;;;68.78;33.58;;;2.50;99.90;;;;;;5078985;28;20073;-68
2022/03/21 03:28:21;;;;;;;64.25;32.35;;;2.50;99.90;;;;;;5081583;28;20040;-69
2022/03/21 03:30:47;;;;;;;68.20;32.90;;;2.50;99.90;;;;;;5075516;28;20441;-69
2022/03/21 03:33:13;;;;;;;65.50;31.70;;;2.50;99.90;;;;;;5078015;28;20504;-68
2022/03/21 03:35:39;;;;;;;65.13;31.30;;;2.50;99.90;;;;;;5080458;28;20032;-68
2022/03/21 03:38:05;;;;;;;63.10;32.33;;;2.50;99.90;;;;;;5075824;28;20080;-68
2022/03/21 03:40:30;;;;;;;64.97;34.07;;;2.50;99.90;;;;;;5076670;28;20496;-68
2022/03/21 03:42:56;;;;;;;66.97;32.23;;;2.50;99.90;;;;;;5074621;28;20047;-68
2022/03/21 03:45:22;;;;;;;66.13;32.67;;;2.50;99.90;;;;;;5077920;28;20078;-68
2022/03/21 03:47:47;;;;;;;67.17;33.53;;;2.50;99.90;;;;;;5077371;28;20056;-68
2022/03/21 03:50:13;;;;;;;69.30;33.43;;;2.50;99.90;;;;;;5068843;28;20037;-68
2022/03/21 03:52:40;;;;;;;66.63;30.93;;;2.50;99.90;;;;;;5072432;28;20042;-69
2022/03/21 03:55:07;;;;;;;64.43;32.80;;;2.60;99.90;;;;;;5070167;28;20039;-68
2022/03/21 03:57:33;;;;;;;69.22;33.45;;;2.50;99.90;;;;;;5072127;28;20123;-68
2022/03/21 03:59:59;;;;;;;69.50;32.13;;;2.50;99.90;;;;;;5076388;28;20126;-68
2022/03/21 04:02:24;;;;;;;71.35;34.60;;;2.50;99.90;;;;;;5076879;28;20190;-68
2022/03/21 04:04:50;;;;;;;62.97;32.40;;;2.50;99.90;;;;;;5074596;28;20516;-69
2022/03/21 04:07:18;;;;;;;71.20;33.50;;;2.50;99.90;;;;;;5077440;28;20401;-69
2022/03/21 04:09:44;;;;;;;63.05;32.47;;;2.50;99.90;;;;;;5077135;28;20040;-68
2022/03/21 04:12:10;;;;;;;63.67;30.92;;;2.50;99.90;;;;;;5071994;28;20056;-68
2022/03/21 04:14:36;;;;;;;64.20;30.50;;;2.50;99.90;;;;;;5077211;28;20303;-68
2022/03/21 04:17:01;;;;;;;59.20;29.47;;;2.50;99.90;;;;;;5077995;28;20507;-69
2022/03/21 04:19:27;;;;;;;63.63;31.77;;;2.50;99.90;;;;;;5083726;28;20048;-68
2022/03/21 04:21:53;;;;;;;61.03;30.63;;;2.50;99.90;;;;;;5074723;28;20120;-68
2022/03/21 04:24:18;;;;;;;68.63;31.90;;;2.50;99.90;;;;;;5076949;28;20046;-68
2022/03/21 04:26:44;;;;;;;66.73;31.13;;;2.60;99.90;;;;;;5084693;28;20496;-68
2022/03/21 04:29:10;;;;;;;58.20;28.67;;;2.50;99.90;;;;;;5081381;28;20051;-68
2022/03/21 04:31:35;;;;;;;61.67;30.77;;;2.50;99.90;;;;;;5062870;28;20492;-68
2022/03/21 04:34:01;;;;;;;67.43;29.93;;;2.50;99.90;;;;;;5078218;28;20388;-68
2022/03/21 04:36:28;;;;;;;60.30;28.10;;;2.50;99.90;;;;;;5074886;28;20211;-68
2022/03/21 04:38:53;;;;;;;66.63;31.30;;;2.50;99.90;;;;;;5078533;28;20401;-68
2022/03/21 04:41:19;;;;;;;59.67;28.67;;;2.50;99.90;;;;;;5077870;28;20047;-68
2022/03/21 04:43:44;;;;;;;59.60;29.87;;;2.50;99.90;;;;;;5077977;28;20044;-69
2022/03/21 04:46:10;;;;;;;66.57;29.83;;;2.50;99.90;;;;;;5077224;28;20668;-68
2022/03/21 04:48:35;;;;;;;61.10;29.60;;;2.50;99.90;;;;;;5085050;28;20080;-68
2022/03/21 04:51:01;;;;;;;62.40;29.33;;;2.50;99.90;;;;;;5077889;28;20408;-68
2022/03/21 04:53:27;;;;;;;59.17;27.40;;;2.40;99.90;;;;;;5080024;28;20041;-68
2022/03/21 04:55:52;;;;;;;56.17;28.43;;;2.40;99.90;;;;;;5066785;28;20127;-68
2022/03/21 04:58:18;;;;;;;57.50;29.63;;;2.40;99.90;;;;;;5060510;28;20036;-68
2022/03/21 05:00:46;;;;;;;56.10;26.80;;;2.40;99.90;;;;;;5076769;28;20507;-68
2022/03/21 05:03:12;;;;;;;57.90;28.73;;;2.40;99.90;;;;;;5074350;28;20048;-68
2022/03/21 05:05:38;;;;;;;54.60;27.47;;;2.30;99.90;;;;;;5074550;28;20047;-69
2022/03/21 05:08:04;;;;;;;57.60;27.53;;;2.30;99.90;;;;;;5080930;28;20054;-69
2022/03/21 05:10:31;;;;;;;56.28;27.52;;;2.30;99.90;;;;;;5080516;28;20118;-68
2022/03/21 05:12:57;;;;;;;53.15;25.67;;;2.30;99.90;;;;;;5075915;28;20518;-68
2022/03/21 05:15:23;;;;;;;54.47;28.23;;;2.30;99.90;;;;;;5080258;28;20059;-68
2022/03/21 05:17:51;;;;;;;55.50;26.10;;;2.30;99.90;;;;;;5080553;28;20032;-68
2022/03/21 05:20:19;;;;;;;61.08;28.27;;;2.30;99.90;;;;;;5078434;28;20496;-69
2022/03/21 05:31:05;;;;;;;52.60;24.10;;;2.20;99.90;;;;;;5084335;28;20063;-69
2022/03/21 05:36:17;;;;;;;54.28;24.70;;;2.20;99.90;;;;;;5077151;28;20048;-68
2022/03/21 05:38:43;;;;;;;46.47;24.77;;;2.20;99.90;;;;;;5083791;28;20097;-68
2022/03/21 05:41:09;;;;;;;56.03;25.13;;;2.20;99.90;;;;;;5083562;28;20481;-68
2022/03/21 05:43:34;;;;;;;53.67;25.90;;;2.20;99.90;;;;;;5083158;28;20290;-68
2022/03/21 05:46:01;;;;;;;47.60;23.67;;;2.20;99.90;;;;;;5076143;28;20044;-69
2022/03/21 05:51:23;;;;;;;46.63;23.50;;;2.20;99.90;;;;;;5088907;28;20047;-68
2022/03/21 05:53:50;;;;;;;48.30;23.52;;;2.20;99.90;;;;;;5078643;28;20028;-68
2022/03/21 05:56:15;;;;;;;47.30;24.48;;;2.30;99.90;;;;;;5079965;28;20540;-68
2022/03/21 05:58:42;;;;;;;51.60;24.30;;;2.30;99.90;;;;;;5079397;28;20028;-68
2022/03/21 06:01:08;;;;;;;46.00;22.85;;;2.30;99.90;;;;;;5063010;28;20178;-68
2022/03/21 06:03:34;;;;;;;48.37;23.97;;;2.30;99.90;;;;;;5081500;28;20131;-68
2022/03/21 06:06:02;;;;;;;44.40;23.85;;;2.30;99.90;;;;;;5076731;28;20040;-69
2022/03/21 06:08:28;;;;;;;47.20;23.67;;;2.30;99.90;;;;;;5076054;28;20490;-68
2022/03/21 06:11:03;;;;;;;45.90;22.90;;;2.30;99.90;;;;;;5083644;28;20048;-69
2022/03/21 06:13:33;;;;;;;50.30;23.25;;;2.40;99.90;;;;;;5079436;28;20075;-69
2022/03/21 06:16:03;;;;;;;49.40;25.27;;;2.40;99.90;;;;;;5075034;28;20044;-69
2022/03/21 06:18:33;;;;;;;46.72;22.10;;;2.40;99.90;;;;;;5083244;28;20032;-68
2022/03/21 06:20:59;;;;;;;51.67;23.98;;;2.50;99.90;;;;;;5079658;28;20055;-68
2022/03/21 06:23:26;;;;;;;47.33;22.27;;;2.50;99.90;;;;;;5080219;28;20074;-69
2022/03/21 06:25:53;;;;;;;45.42;22.92;;;2.50;99.90;;;;;;5061315;28;20471;-69
2022/03/21 06:28:22;;;;;;;44.03;22.48;;;2.60;99.90;;;;;;5078855;28;20036;-68
2022/03/21 06:30:53;;;;;;;50.22;23.25;;;2.60;99.90;;;;;;5081062;28;20115;-68
2022/03/21 06:33:21;;;;;;;45.65;23.35;;;2.70;99.90;;;;;;5078561;28;20048;-68
2022/03/21 06:35:46;;;;;;;44.15;22.95;;;2.70;99.90;;;;;;5079497;28;20115;-69
2022/03/21 06:38:12;;;;;;;50.60;24.77;;;2.70;99.90;;;;;;5083822;28;20131;-69
2022/03/21 06:40:39;;;;;;;49.03;23.43;;;2.70;99.90;;;;;;5077918;28;20036;-68
2022/03/21 06:43:04;;;;;;;48.38;22.45;;;2.80;99.90;;;;;;5084047;28;20138;-69
2022/03/21 06:45:30;;;;;;;49.00;24.40;;;2.90;99.90;;;;;;5082938;28;20131;-68
2022/03/21 06:47:56;;;;;;;48.17;23.60;;;2.90;99.90;;;;;;5084304;28;20379;-69
2022/03/21 06:50:22;;;;;;;51.33;24.40;;;3.00;99.90;;;;;;5076053;28;20052;-68
2022/03/21 06:52:47;;;;;;;47.97;23.97;;;3.00;99.90;;;;;;5078526;28;20081;-69
2022/03/21 06:55:13;;;;;;;49.57;23.87;;;3.10;99.90;;;;;;5081383;28;20036;-68
2022/03/21 06:57:42;;;;;;;46.70;24.17;;;3.10;99.90;;;;;;5080107;28;20028;-68
2022/03/21 07:00:08;;;;;;;51.55;23.95;;;3.20;99.90;;;;;;5058614;28;20040;-68
2022/03/21 07:02:34;;;;;;;54.10;24.20;;;3.20;99.90;;;;;;5080867;28;20089;-68
2022/03/21 07:05:00;;;;;;;49.20;23.95;;;3.30;99.90;;;;;;5082178;28;20036;-68
2022/03/21 07:07:27;;;;;;;48.50;24.13;;;3.30;99.90;;;;;;5077992;28;20062;-68
2022/03/21 07:09:53;;;;;;;48.50;23.15;;;3.40;99.90;;;;;;5074834;28;20058;-68
2022/03/21 07:12:19;;;;;;;49.53;24.50;;;3.50;99.90;;;;;;5081961;28;20040;-68
2022/03/21 07:14:46;;;;;;;48.87;25.00;;;3.50;99.90;;;;;;5079767;28;20043;-68
2022/03/21 07:17:12;;;;;;;51.22;24.08;;;3.60;99.90;;;;;;5071325;28;20105;-68
2022/03/21 07:19:37;;;;;;;48.20;24.53;;;3.60;99.90;;;;;;5079441;28;20480;-68
2022/03/21 07:22:03;;;;;;;49.63;25.03;;;3.70;99.90;;;;;;5082710;28;20055;-76
2022/03/21 07:24:29;;;;;;;48.15;24.60;;;3.80;99.90;;;;;;5083902;28;20048;-68
2022/03/21 07:26:55;;;;;;;47.27;22.73;;;3.80;99.90;;;;;;5078417;28;20480;-68
2022/03/21 07:29:23;;;;;;;49.90;23.97;;;3.90;99.90;;;;;;5076169;28;20032;-68
2022/03/21 07:31:48;;;;;;;48.72;23.02;;;4.00;99.90;;;;;;5085145;28;20033;-68
2022/03/21 07:34:14;;;;;;;45.80;22.63;;;4.00;99.90;;;;;;5065563;28;20046;-68
2022/03/21 07:36:40;;;;;;;47.50;22.47;;;4.10;99.90;;;;;;5076276;28;20035;-68
2022/03/21 07:39:05;;;;;;;48.77;23.40;;;4.20;99.90;;;;;;5076338;28;20688;-68
2022/03/21 07:41:31;;;;;;;45.13;21.27;;;4.20;99.90;;;;;;5077648;28;20085;-68
2022/03/21 07:43:58;;;;;;;44.10;22.20;;;4.30;99.90;;;;;;5074514;28;20074;-69
2022/03/21 07:49:09;;;;;;;38.72;20.67;;;4.50;99.90;;;;;;5069269;28;19916;-68
2022/03/21 07:51:34;;;;;;;42.33;21.10;;;4.60;99.90;;;;;;5073410;28;20127;-68
2022/03/21 07:54:00;;;;;;;38.77;20.07;;;4.60;99.90;;;;;;5068658;28;20028;-68
2022/03/21 07:56:26;;;;;;;39.83;19.33;;;4.70;99.90;;;;;;5056129;28;20059;-69
2022/03/21 07:58:51;;;;;;;38.53;19.57;;;4.80;99.90;;;;;;5078441;28;20506;-68
2022/03/21 08:01:18;;;;;;;40.72;19.30;;;4.90;99.90;;;;;;5078567;28;20043;-68
2022/03/21 08:03:46;;;;;;;35.90;18.38;;;5.00;99.90;;;;;;5077225;28;20043;-68
2022/03/21 08:06:11;;;;;;;38.30;20.35;;;5.10;99.90;;;;;;5080195;28;20055;-68
2022/03/21 08:08:38;;;;;;;39.07;19.63;;;5.20;99.90;;;;;;5071882;28;20498;-69
2022/03/21 08:11:05;;;;;;;42.33;20.35;;;5.30;99.90;;;;;;5079896;28;20344;-68
2022/03/21 08:13:32;;;;;;;34.95;18.70;;;5.40;99.90;;;;;;5072514;28;20116;-68
2022/03/21 08:15:59;;;;;;;43.15;19.52;;;5.60;99.90;;;;;;5073374;28;20097;-68
2022/03/21 08:18:25;;;;;;;40.63;19.35;;;5.70;99.90;;;;;;5078935;28;20058;-68
2022/03/21 08:20:51;;;;;;;39.13;19.38;;;5.80;99.90;;;;;;5080738;28;20492;-68
2022/03/21 08:23:16;;;;;;;34.03;18.08;;;6.00;99.90;;;;;;5083705;28;20144;-68
2022/03/21 08:25:47;;;;;;;39.90;18.23;;;6.10;99.90;;;;;;5070822;28;20044;-69
2022/03/21 08:28:14;;;;;;;37.33;18.75;;;6.10;99.90;;;;;;5075263;28;20058;-68
2022/03/21 08:30:41;;;;;;;40.47;19.25;;;6.30;99.90;;;;;;5079225;28;20036;-68
2022/03/21 08:33:10;;;;;;;47.88;19.88;;;6.40;99.90;;;;;;5075062;28;20051;-68
2022/03/21 08:35:37;;;;;;;37.50;18.27;;;6.50;99.90;;;;;;5090597;22;20582;-72
2022/03/21 08:38:04;;;;;;;38.25;20.25;;;6.60;99.90;;;;;;5078496;28;20028;-72
2022/03/21 08:40:30;;;;;;;38.55;18.50;;;6.80;99.90;;;;;;5079582;28;20063;-77
2022/03/21 08:42:56;;;;;;;41.08;19.38;;;6.90;99.90;;;;;;5078831;28;20043;-76
2022/03/21 08:45:23;;;;;;;34.63;17.42;;;7.00;99.90;;;;;;5095561;28;20043;-73
2022/03/21 08:47:53;;;;;;;37.30;17.95;;;7.10;99.90;;;;;;5075155;28;20058;-73
2022/03/21 08:50:19;;;;;;;36.53;17.60;;;7.20;99.90;;;;;;5081152;28;20381;-76
2022/03/21 08:52:46;;;;;;;34.92;18.42;;;7.30;99.90;;;;;;5082040;28;20145;-73
2022/03/21 08:55:11;;;;;;;33.65;17.20;;;7.40;99.90;;;;;;5077729;28;20035;-74
2022/03/21 08:57:38;;;;;;;34.87;18.00;;;7.50;99.90;;;;;;5074477;28;20059;-73
2022/03/21 09:00:06;;;;;;;37.83;18.38;;;7.60;99.90;;;;;;5085722;28;20492;-75
2022/03/21 09:02:36;;;;;;;32.00;15.95;;;7.70;99.90;;;;;;5072839;28;20436;-74
2022/03/21 09:05:04;;;;;;;38.20;17.15;;;7.80;99.90;;;;;;5099094;28;20480;-74
2022/03/21 09:07:30;;;;;;;34.92;16.85;;;7.90;99.90;;;;;;5083458;28;20051;-73
2022/03/21 09:09:56;;;;;;;34.17;16.27;;;8.00;99.90;;;;;;5085059;28;20047;-75
2022/03/21 09:12:21;;;;;;;31.13;15.47;;;8.10;99.90;;;;;;5080525;28;20040;-73
2022/03/21 09:14:47;;;;;;;29.73;15.50;;;8.20;99.90;;;;;;5085385;28;20047;-73
2022/03/21 09:17:13;;;;;;;30.73;15.20;;;8.30;99.90;;;;;;5077911;28;20361;-73
2022/03/21 09:19:40;;;;;;;33.55;15.52;;;8.40;99.90;;;;;;5086394;28;20035;-74
2022/03/21 09:22:05;;;;;;;36.83;16.65;;;8.50;99.90;;;;;;5100862;28;20316;-77
2022/03/21 09:24:32;;;;;;;29.23;14.67;;;8.70;99.90;;;;;;5077745;28;20416;-74
2022/03/21 09:26:58;;;;;;;29.23;15.88;;;8.80;99.90;;;;;;5067095;27;20035;-75
2022/03/21 09:29:24;;;;;;;29.75;16.45;;;8.90;99.90;;;;;;5083509;28;20040;-73
2022/03/21 09:31:50;;;;;;;24.77;15.00;;;9.10;99.90;;;;;;5100046;28;20024;-75
2022/03/21 09:34:17;;;;;;;28.35;15.35;;;9.30;99.90;;;;;;5085606;28;20123;-74
2022/03/21 09:36:44;;;;;;;28.77;14.57;;;9.40;99.90;;;;;;5079537;28;20445;-74
2022/03/21 09:39:10;;;;;;;30.65;15.93;;;9.50;99.90;;;;;;5102406;28;20039;-73
2022/03/21 09:41:36;;;;;;;;;;;9.60;99.90;;;;;;5078406;28;20547;-75
2022/03/21 09:44:07;;;;;;;26.95;14.57;;;9.70;99.90;;;;;;5087470;28;19920;-73
2022/03/21 09:46:33;;;;;;;32.80;16.35;;;9.80;99.90;;;;;;5077341;28;20071;-74
2022/03/21 09:48:59;;;;;;;28.38;15.73;;;10.00;99.90;;;;;;5082951;28;20044;-74
2022/03/21 09:51:27;;;;;;;27.30;15.67;;;10.10;99.90;;;;;;5078980;28;20454;-74
2022/03/21 09:53:58;;;;;;;30.40;14.85;;;10.30;99.90;;;;;;5080254;28;20043;-75
2022/03/21 09:56:25;;;;;;;27.17;14.32;;;10.40;99.90;;;;;;5078478;28;20496;-74
2022/03/21 09:58:53;;;;;;;32.45;14.82;;;10.60;99.90;;;;;;5058596;28;20144;-74
2022/03/21 10:01:18;;;;;;;28.77;14.68;;;10.70;99.90;;;;;;5075827;28;20043;-74
2022/03/21 10:03:44;;;;;;;25.57;13.53;;;10.90;99.90;;;;;;5084162;28;20040;-74
2022/03/21 10:06:37;;;;;;;25.38;14.05;;;11.00;99.90;;;;;;5078235;28;20500;-75
2022/03/21 10:09:21;;;;;;;26.45;13.52;;;11.10;99.90;;;;;;5103036;27;20264;-73
2022/03/21 10:11:58;;;;;;;26.02;13.93;;;11.20;99.90;;;;;;5086792;27;20050;-74
2022/03/21 10:14:32;;;;;;;27.75;13.27;;;11.30;99.90;;;;;;5063780;28;20036;-73
2022/03/21 10:17:05;;;;;;;28.55;14.05;;;11.50;99.90;;;;;;5077842;27;20082;-73
2022/03/21 10:19:58;;;;;;;27.55;14.18;;;11.60;99.90;;;;;;5087196;28;20069;-75
2022/03/21 10:22:33;;;;;;;27.77;14.80;;;11.70;99.90;;;;;;5097321;28;20500;-73
2022/03/21 10:25:07;;;;;;;23.58;12.68;;;11.80;99.90;;;;;;5089204;28;20061;-73
2022/03/21 10:27:38;;;;;;;23.63;12.15;;;12.00;99.90;;;;;;5080159;28;20538;-73
2022/03/21 10:30:09;;;;;;;22.10;11.02;;;12.10;93.70;;;;;;5081207;28;20071;-74
2022/03/21 10:32:43;;;;;;;22.52;11.23;;;12.10;84.00;;;;;;5095132;28;20068;-74
2022/03/21 10:35:15;;;;;;;22.52;11.20;;;12.20;70.50;;;;;;5093797;28;20040;-73
2022/03/21 10:37:42;;;;;;;21.13;11.88;;;12.20;67.90;;;;;;5077010;28;20514;-73
2022/03/21 10:40:40;;;;;;;22.75;11.75;;;12.30;71.40;;;;;;5082355;28;20277;-73
2022/03/21 10:43:18;;;;;;;21.05;10.57;;;12.50;64.70;;;;;;5100051;28;20044;-73
2022/03/21 10:45:52;;;;;;;22.50;12.13;;;12.50;66.20;;;;;;5064844;28;20047;-73
2022/03/21 10:48:19;;;;;;;23.92;11.85;;;12.60;66.30;;;;;;5101679;28;20432;-73
2022/03/21 10:50:50;;;;;;;21.88;11.85;;;12.70;66.10;;;;;;5077937;28;20083;-73
2022/03/21 10:53:27;;;;;;;20.45;11.15;;;12.80;63.90;;;;;;5082090;28;20082;-73
2022/03/21 10:56:07;;;;;;;16.77;9.73;;;12.90;62.60;;;;;;5089973;28;20031;-73
2022/03/21 10:58:38;;;;;;;16.60;10.43;;;13.00;62.40;;;;;;5079058;28;20078;-73
2022/03/21 11:01:29;;;;;;;23.60;12.80;;;13.10;62.30;;;;;;5097952;28;20420;-73
2022/03/21 11:03:57;;;;;;;22.15;12.60;;;13.10;59.40;;;;;;5072011;28;20480;-73
2022/03/21 11:06:24;;;;;;;20.33;11.15;;;13.20;60.70;;;;;;5082217;28;20087;-73
2022/03/21 11:08:52;;;;;;;21.95;12.27;;;13.20;59.30;;;;;;5081967;28;20047;-73
2022/03/21 11:11:18;;;;;;;19.65;11.60;;;13.20;59.00;;;;;;5072381;27;20109;-73
2022/03/21 11:13:45;;;;;;;;;;;13.30;59.00;;;;;;5081417;28;20054;-73
2022/03/21 11:16:11;;;;;;;25.10;12.10;;;13.30;55.30;;;;;;5080899;28;20376;-74
2022/03/21 11:18:39;;;;;;;22.50;11.68;;;13.40;61.70;;;;;;5089000;28;20043;-74
2022/03/21 11:21:07;;;;;;;23.02;13.07;;;13.60;61.20;;;;;;5098524;27;20051;-73
2022/03/21 11:23:32;;;;;;;24.02;13.25;;;13.70;60.50;;;;;;5066823;28;20077;-74
2022/03/21 11:26:22;;;;;;;23.03;12.50;;;13.90;61.40;;;;;;5071849;28;20177;-73
2022/03/21 11:29:15;;;;;;;21.48;11.70;;;14.00;60.60;;;;;;5077204;28;20046;-74
2022/03/21 11:31:59;;;;;;;20.60;11.88;;;14.10;60.10;;;;;;5079806;28;20085;-73
2022/03/21 11:34:55;;;;;;;20.27;11.07;;;14.20;60.20;;;;;;5071873;28;20039;-73
2022/03/21 11:37:27;;;;;;;20.33;11.20;;;14.30;55.70;;;;;;5090675;28;20036;-73
2022/03/21 11:40:45;;;;;;;20.83;11.02;;;14.40;56.60;;;;;;5021124;28;20404;-73
2022/03/21 11:43:17;;;;;;;22.08;11.18;;;14.50;53.00;;;;;;5066510;28;20376;-73
2022/03/21 11:46:16;;;;;;;19.48;11.27;;;14.50;56.30;;;;;;5054121;28;20636;-73
2022/03/21 11:48:52;;;;;;;19.77;10.35;;;14.60;55.80;;;;;;5043103;28;20245;-74
2022/03/21 11:51:18;;;;;;;18.02;10.50;;;14.70;55.30;;;;;;5039342;28;20712;-74
2022/03/21 11:53:51;;;;;;;25.35;11.68;;;14.80;53.70;;;;;;5089425;28;20076;-74
2022/03/21 11:56:36;;;;;;;23.52;11.40;;;14.90;53.30;;;;;;5084370;28;20074;-73
2022/03/21 11:59:26;;;;;;;18.27;10.73;;;14.80;51.50;;;;;;4999876;28;20066;-74
2022/03/21 12:02:15;;;;;;;19.10;10.90;;;14.90;51.70;;;;;;5037682;28;20337;-74
2022/03/21 12:05:09;;;;;;;23.42;11.82;;;15.00;50.80;;;;;;5019586;28;20900;-74
2022/03/21 12:07:38;;;;;;;19.77;11.10;;;15.10;47.70;;;;;;5008520;28;20349;-74
2022/03/21 12:10:05;;;;;;;21.70;11.60;;;15.00;49.80;;;;;;5001674;28;20820;-74
2022/03/21 12:12:40;;;;;;;21.08;10.60;;;15.10;50.40;;;;;;5068435;28;20036;-74
2022/03/21 12:15:17;;;;;;;20.15;11.40;;;15.20;50.60;;;;;;5083077;28;20463;-74
2022/03/21 12:17:49;;;;;;;21.00;11.55;;;15.40;51.90;;;;;;5052942;28;20859;-74
2022/03/21 12:20:18;;;;;;;20.73;10.70;;;15.50;49.70;;;;;;5056581;28;20364;-74
2022/03/21 12:22:47;;;;;;;18.75;10.82;;;15.60;50.10;;;;;;5084336;28;20052;-74
2022/03/21 12:25:39;;;;;;;20.40;10.88;;;15.70;49.50;;;;;;5088752;28;20403;-74
2022/03/21 12:31:31;;;;;;;18.52;10.93;;;15.70;46.00;;;;;;5085588;28;20118;-74
2022/03/21 12:34:35;;;;;;;22.23;12.25;;;15.70;47.70;;;;;;5066255;28;20055;-73
2022/03/21 12:37:32;;;;;;;18.75;11.68;;;15.80;46.00;;;;;;5081532;28;20075;-74
2022/03/21 12:40:00;;;;;;;19.63;11.57;;;15.90;47.60;;;;;;5094450;28;20043;-73
2022/03/21 12:42:30;;;;;;;19.08;10.90;;;15.90;48.20;;;;;;5022829;28;20561;-74
2022/03/21 12:44:59;;;;;;;21.40;11.30;;;16.00;48.60;;;;;;5076953;28;20093;-73
2022/03/21 12:47:25;;;;;;;20.10;11.50;;;16.00;47.30;;;;;;5084930;28;20050;-75
2022/03/21 12:49:52;;;;;;;21.38;11.60;;;16.00;47.60;;;;;;5064456;28;20052;-74
2022/03/21 12:52:29;;;;;;;20.63;12.27;;;16.10;48.20;;;;;;5084187;28;20044;-75
2022/03/21 12:54:56;;;;;;;18.30;10.48;;;16.20;47.20;;;;;;5098504;28;20052;-73
2022/03/21 12:57:22;;;;;;;20.48;11.80;;;16.30;47.10;;;;;;5093123;28;20404;-74
2022/03/21 12:59:48;;;;;;;22.25;10.65;;;16.40;47.10;;;;;;5093752;27;20031;-74
2022/03/21 13:02:27;;;;;;;22.55;11.02;;;16.50;47.00;;;;;;5094833;28;20439;-73
2022/03/21 13:10:34;;;;;;;22.77;11.23;;;16.70;46.40;;;;;;5076694;28;20071;-74
2022/03/21 13:13:01;;;;;;;25.02;10.30;;;16.80;45.90;;;;;;5099436;28;20040;-74